createdAt,value
2022-08-19T00:02:43.985Z,9.40
2022-08-19T00:07:53.881Z,10.20
2022-08-19T00:12:57.546Z,9.50
2022-08-19T00:18:01.349Z,9.80
2022-08-19T00:23:04.748Z,9.70
2022-08-19T00:28:08.367Z,9.70
2022-08-19T00:33:12.172Z,9.40
2022-08-19T00:38:16.119Z,10.30
2022-08-19T00:43:40.034Z,7.90
2022-08-19T00:48:43.418Z,11.20
2022-08-19T00:53:47.355Z,11.20
2022-08-19T00:58:51.714Z,10.70
2022-08-19T01:03:56.765Z,11.20
2022-08-19T01:09:01.689Z,10.50
2022-08-19T01:14:06.024Z,10.40
2022-08-19T01:19:30.019Z,10.40
2022-08-19T01:24:33.843Z,11.30
2022-08-19T01:29:43.672Z,11.80
2022-08-19T01:34:48.351Z,11.60
2022-08-19T01:39:51.882Z,11.40
2022-08-19T01:44:55.282Z,11.30
2022-08-19T01:49:59.945Z,11.60
2022-08-19T01:55:03.729Z,12.70
2022-08-19T02:00:12.894Z,10.70
2022-08-19T02:05:17.746Z,11.20
2022-08-19T02:10:23.836Z,10.90
2022-08-19T02:15:27.289Z,11.30
2022-08-19T02:20:30.747Z,11.40
2022-08-19T02:25:34.469Z,11.90
2022-08-19T02:30:37.927Z,11.00
2022-08-19T02:35:46.623Z,11.60
2022-08-19T02:40:53.537Z,10.80
2022-08-19T02:45:57.396Z,11.20
2022-08-19T02:51:00.755Z,12.40
2022-08-19T02:56:09.228Z,11.40
2022-08-19T03:01:30.999Z,12.10
2022-08-19T03:06:40.735Z,10.80
2022-08-19T03:11:44.525Z,11.70
2022-08-19T03:16:53.532Z,10.90
2022-08-19T03:21:56.856Z,10.50
2022-08-19T03:27:00.387Z,11.50
2022-08-19T03:32:07.192Z,12.30
2022-08-19T03:37:16.331Z,12.20
2022-08-19T03:42:32.824Z,10.40
2022-08-19T03:47:43.103Z,10.70
2022-08-19T03:52:53.214Z,12.40
2022-08-19T03:57:59.358Z,12.10
2022-08-19T04:03:03.067Z,11.10
2022-08-19T04:08:09.694Z,10.80
2022-08-19T04:13:19.615Z,12.10
2022-08-19T04:18:22.962Z,13.80
2022-08-19T04:23:26.363Z,12.70
2022-08-19T04:28:30.100Z,8.60
2022-08-19T04:33:34.945Z,8.40
2022-08-19T04:38:38.361Z,12.40
2022-08-19T04:43:41.772Z,11.90
2022-08-19T04:48:49.515Z,10.20
2022-08-19T04:53:53.864Z,7.70
2022-08-19T04:58:58.733Z,11.10
2022-08-19T05:04:05.887Z,10.90
2022-08-19T05:09:09.597Z,11.70
2022-08-19T05:14:16.492Z,11.70
2022-08-19T05:19:38.439Z,11.20
2022-08-19T05:25:02.566Z,11.60
2022-08-19T05:30:06.915Z,12.50
2022-08-19T05:35:11.776Z,11.80
2022-08-19T05:40:15.371Z,10.40
2022-08-19T05:45:18.852Z,12.50
2022-08-19T05:50:23.609Z,10.70
2022-08-19T05:55:26.930Z,10.20
2022-08-19T06:00:32.787Z,11.70
2022-08-19T06:05:49.516Z,10.20
2022-08-19T06:10:56.944Z,10.80
2022-08-19T06:16:00.330Z,10.90
2022-08-19T06:21:05.381Z,10.80
2022-08-19T06:26:13.916Z,11.10
2022-08-19T06:31:22.177Z,10.80
2022-08-19T06:36:31.357Z,10.40
2022-08-19T06:41:48.798Z,10.30
2022-08-19T06:46:56.589Z,9.00
2022-08-19T06:52:02.030Z,7.80
2022-08-19T06:57:06.765Z,9.60
2022-08-19T07:02:10.619Z,9.90
2022-08-19T07:07:21.545Z,9.90
2022-08-19T07:12:25.499Z,9.00
2022-08-19T07:17:30.556Z,9.60
2022-08-19T07:22:35.914Z,8.90
2022-08-19T07:27:40.034Z,8.10
2022-08-19T07:32:43.773Z,7.50
2022-08-19T07:37:47.751Z,8.20
2022-08-19T07:42:51.095Z,7.40
2022-08-19T07:47:54.796Z,7.20
2022-08-19T07:52:58.286Z,7.10
2022-08-19T07:58:01.883Z,7.50
2022-08-19T08:03:07.102Z,7.80
2022-08-19T08:08:29.204Z,8.30
2022-08-19T08:13:36.468Z,7.20
2022-08-19T08:18:50.243Z,6.90
2022-08-19T08:23:56.927Z,7.70
2022-08-19T08:29:00.738Z,8.30
2022-08-19T08:34:04.462Z,7.80
2022-08-19T08:39:07.989Z,8.20
2022-08-19T08:44:25.108Z,7.40
2022-08-19T08:50:19.531Z,7.30
2022-08-19T08:55:36.976Z,7.60
2022-08-19T09:00:47.745Z,7.20
2022-08-19T09:06:02.526Z,6.70
2022-08-19T09:11:13.262Z,5.40
2022-08-19T09:16:27.898Z,6.80
2022-08-19T09:21:33.353Z,7.80
2022-08-19T09:26:47.807Z,6.90
2022-08-19T09:31:57.585Z,7.00
2022-08-19T09:37:01.347Z,6.40
2022-08-19T09:42:06.159Z,5.90
2022-08-19T09:47:20.069Z,5.50
2022-08-19T09:52:23.466Z,6.30
2022-08-19T09:57:28.277Z,5.60
2022-08-19T10:02:31.788Z,5.70
2022-08-19T10:07:36.331Z,4.50
2022-08-19T10:12:40.769Z,5.00
2022-08-19T10:17:48.166Z,6.00
2022-08-19T10:23:02.608Z,6.00
2022-08-19T10:28:10.663Z,5.90
2022-08-19T10:33:15.310Z,5.90
2022-08-19T10:38:39.512Z,6.20
2022-08-19T10:44:06.631Z,6.20
2022-08-19T10:49:12.360Z,5.80
2022-08-19T10:54:16.251Z,6.00
2022-08-19T10:59:35.224Z,5.70
2022-08-19T11:04:41.582Z,5.90
2022-08-19T11:09:45.152Z,5.60
2022-08-19T11:14:51.331Z,6.80
2022-08-19T11:19:54.743Z,6.30
2022-08-19T11:24:58.157Z,5.30
2022-08-19T11:30:01.958Z,5.30
2022-08-19T11:35:06.553Z,4.70
2022-08-19T11:40:11.215Z,5.20
2022-08-19T11:45:15.515Z,5.60
2022-08-19T11:50:20.324Z,4.60
2022-08-19T11:55:24.765Z,4.40
2022-08-19T12:00:28.199Z,4.20
2022-08-19T12:05:31.719Z,5.40
2022-08-19T12:10:38.782Z,4.70
2022-08-19T12:15:42.538Z,5.50
2022-08-19T12:20:47.410Z,4.40
2022-08-19T12:25:52.916Z,4.70
2022-08-19T12:30:58.350Z,5.40
2022-08-19T12:36:06.611Z,5.00
2022-08-19T12:41:15.190Z,6.00
2022-08-19T12:46:22.261Z,5.80
2022-08-19T12:51:28.148Z,5.40
2022-08-19T12:56:32.478Z,5.70
2022-08-19T13:01:36.206Z,5.30
2022-08-19T13:06:39.716Z,4.20
2022-08-19T13:11:44.768Z,6.20
2022-08-19T13:16:48.136Z,5.60
2022-08-19T13:21:52.266Z,4.60
2022-08-19T13:27:04.125Z,5.60
2022-08-19T13:32:25.981Z,5.00
2022-08-19T13:37:44.521Z,5.40
2022-08-19T13:42:51.739Z,4.80
2022-08-19T13:47:59.875Z,4.30
2022-08-19T13:53:04.156Z,5.20
2022-08-19T13:58:08.487Z,5.00
2022-08-19T14:03:12.599Z,3.90
2022-08-19T14:08:16.479Z,3.90
2022-08-19T14:13:23.085Z,5.00
2022-08-19T14:18:28.609Z,5.20
2022-08-19T14:23:34.618Z,4.30
2022-08-19T14:28:38.236Z,4.70
2022-08-19T14:33:41.784Z,8.50
2022-08-19T14:38:45.477Z,9.50
2022-08-19T14:43:53.472Z,9.10
2022-08-19T14:48:59.959Z,6.00
2022-08-19T14:54:04.118Z,4.20
2022-08-19T14:59:07.625Z,4.80
2022-08-19T15:04:11.285Z,4.50
2022-08-19T15:09:15.273Z,3.70
2022-08-19T15:14:18.688Z,4.80
2022-08-19T15:19:22.326Z,4.60
2022-08-19T15:24:27.055Z,4.20
2022-08-19T15:29:30.461Z,4.70
2022-08-19T15:34:34.299Z,4.60
2022-08-19T15:39:37.944Z,4.00
2022-08-19T15:44:41.423Z,4.70
2022-08-19T15:49:45.245Z,4.80
2022-08-19T15:54:48.764Z,5.60
2022-08-19T16:00:11.579Z,5.40
2022-08-19T16:05:40.455Z,5.50
2022-08-19T16:10:43.861Z,4.30
2022-08-19T16:15:47.678Z,4.80
2022-08-19T16:20:51.910Z,4.50
2022-08-19T16:25:55.189Z,5.00
2022-08-19T16:30:58.640Z,4.60
2022-08-19T16:36:07.074Z,4.80
2022-08-19T16:41:14.681Z,5.40
2022-08-19T16:46:19.849Z,5.20
2022-08-19T16:51:26.115Z,6.00
2022-08-19T16:56:31.475Z,5.60
2022-08-19T17:01:34.839Z,5.40
2022-08-19T17:06:39.855Z,5.40
2022-08-19T17:11:43.252Z,4.60
2022-08-19T17:16:46.739Z,5.40
2022-08-19T17:21:50.050Z,5.50
2022-08-19T17:26:53.397Z,5.30
2022-08-19T17:31:56.804Z,5.30
2022-08-19T17:37:00.145Z,4.70
2022-08-19T17:42:03.624Z,5.50
2022-08-19T17:47:09.403Z,4.90
2022-08-19T17:52:12.820Z,5.50
2022-08-19T17:57:16.329Z,5.40
2022-08-19T18:02:22.018Z,6.00
2022-08-19T18:07:26.333Z,4.90
2022-08-19T18:12:29.746Z,5.40
2022-08-19T18:17:33.670Z,5.50
2022-08-19T18:22:42.976Z,5.50
2022-08-19T18:27:48.060Z,5.10
2022-08-19T18:32:54.563Z,5.40
2022-08-19T18:38:02.335Z,5.70
2022-08-19T18:43:25.638Z,4.70
2022-08-19T18:48:48.017Z,5.00
2022-08-19T18:53:51.839Z,5.60
2022-08-19T18:58:56.878Z,6.80
2022-08-19T19:04:10.956Z,6.40
2022-08-19T19:09:19.904Z,5.50
2022-08-19T19:14:48.571Z,8.40
2022-08-19T19:19:53.400Z,7.10
2022-08-19T19:24:57.391Z,6.20
2022-08-19T19:30:01.100Z,5.30
2022-08-19T19:35:06.789Z,6.20
2022-08-19T19:40:10.852Z,5.50
2022-08-19T19:45:19.339Z,4.70
2022-08-19T19:50:22.741Z,5.50
2022-08-19T19:55:27.085Z,4.10
2022-08-19T20:00:31.085Z,4.90
2022-08-19T20:05:34.527Z,4.80
2022-08-19T20:10:39.534Z,4.20
2022-08-19T20:15:46.218Z,4.90
2022-08-19T20:20:50.495Z,4.50
2022-08-19T20:25:54.830Z,4.90
2022-08-19T20:30:58.864Z,4.60
2022-08-19T20:36:02.875Z,3.10
2022-08-19T20:41:06.712Z,4.70
2022-08-19T20:46:10.125Z,4.90
2022-08-19T20:51:14.371Z,3.70
2022-08-19T20:56:17.826Z,3.70
2022-08-19T21:01:23.964Z,3.30
2022-08-19T21:06:27.363Z,3.90
2022-08-19T21:11:32.546Z,4.10
2022-08-19T21:16:36.138Z,4.80
2022-08-19T21:21:39.657Z,3.70
2022-08-19T21:26:42.976Z,4.50
2022-08-19T21:31:46.666Z,4.50
2022-08-19T21:36:50.107Z,3.50
2022-08-19T21:41:53.614Z,3.30
2022-08-19T21:46:57.341Z,3.40
2022-08-19T21:52:02.184Z,3.80
2022-08-19T21:57:10.683Z,4.10
2022-08-19T22:02:20.279Z,3.10
2022-08-19T22:07:24.305Z,3.80
2022-08-19T22:12:35.910Z,4.10
2022-08-19T22:17:41.038Z,4.50
2022-08-19T22:23:02.091Z,3.50
2022-08-19T22:28:11.175Z,3.60
2022-08-19T22:33:19.795Z,3.70
2022-08-19T22:38:25.044Z,3.80
2022-08-19T22:43:31.942Z,3.90
2022-08-19T22:48:35.337Z,3.80
2022-08-19T22:53:43.005Z,4.00
2022-08-19T22:58:50.272Z,3.90
2022-08-19T23:03:53.839Z,4.20
2022-08-19T23:08:57.595Z,4.10
2022-08-19T23:14:00.979Z,4.20
2022-08-19T23:19:04.937Z,4.30
2022-08-19T23:24:10.194Z,4.30
2022-08-19T23:29:32.142Z,5.10
2022-08-19T23:34:35.559Z,5.10
2022-08-19T23:39:39.282Z,3.90
2022-08-19T23:44:52.326Z,4.20
2022-08-19T23:49:56.471Z,4.20
2022-08-19T23:55:06.490Z,6.30
